createdAt,value
2023-03-18T00:01:09.635Z,100803.50
2023-03-18T00:03:38.617Z,100810.31
2023-03-18T00:06:11.659Z,100820.19
2023-03-18T00:08:40.266Z,100821.84
2023-03-18T00:11:10.050Z,100824.53
2023-03-18T00:13:38.403Z,100820.31
2023-03-18T00:16:07.762Z,100824.53
2023-03-18T00:18:36.105Z,100819.63
2023-03-18T00:21:04.421Z,100808.34
2023-03-18T00:23:34.591Z,100815.75
2023-03-18T00:26:03.045Z,100815.38
2023-03-18T00:28:31.657Z,100811.03
2023-03-18T00:31:05.295Z,100807.53
2023-03-18T00:33:33.737Z,100809.34
2023-03-18T00:36:01.992Z,100803.75
2023-03-18T00:38:30.515Z,100811.00
2023-03-18T00:41:10.848Z,100806.00
2023-03-18T00:43:46.101Z,100819.41
2023-03-18T00:46:16.339Z,100807.53
2023-03-18T00:48:44.884Z,100806.44
2023-03-18T00:51:14.210Z,100795.72
2023-03-18T00:53:42.675Z,100796.16
2023-03-18T00:56:12.119Z,100784.28
2023-03-18T00:58:40.992Z,100786.25
2023-03-18T01:01:09.814Z,100781.94
2023-03-18T01:03:37.745Z,100785.56
2023-03-18T01:06:06.170Z,100778.72
2023-03-18T01:08:33.924Z,100772.34
2023-03-18T01:11:01.713Z,100768.97
2023-03-18T01:13:31.113Z,100764.38
2023-03-18T01:15:58.899Z,100762.75
2023-03-18T01:18:26.693Z,100757.44
2023-03-18T01:20:55.583Z,100764.09
2023-03-18T01:23:23.613Z,100751.00
2023-03-18T01:25:51.492Z,100750.25
2023-03-18T01:28:19.543Z,100743.44
2023-03-18T01:30:48.835Z,100749.41
2023-03-18T01:33:17.822Z,100744.91
2023-03-18T01:35:46.964Z,100748.59
2023-03-18T01:38:15.320Z,100741.63
2023-03-18T01:40:45.243Z,100749.66
2023-03-18T01:43:16.529Z,100745.09
2023-03-18T01:45:48.736Z,100743.97
2023-03-18T01:48:19.615Z,100741.75
2023-03-18T01:50:52.304Z,100748.19
2023-03-18T01:53:22.395Z,100753.09
2023-03-18T01:55:52.190Z,100754.88
2023-03-18T01:58:23.396Z,100745.31
2023-03-18T02:00:57.727Z,100741.41
2023-03-18T02:03:27.782Z,100752.13
2023-03-18T02:05:56.004Z,100760.34
2023-03-18T02:08:24.144Z,100754.09
2023-03-18T02:10:53.289Z,100767.31
2023-03-18T02:13:21.063Z,100778.44
2023-03-18T02:15:53.285Z,100773.69
2023-03-18T02:18:25.123Z,100775.69
2023-03-18T02:21:12.358Z,100771.75
2023-03-18T02:23:49.049Z,100776.09
2023-03-18T02:26:23.744Z,100777.63
2023-03-18T02:28:58.169Z,100766.34
2023-03-18T02:31:27.385Z,100771.25
2023-03-18T02:33:55.409Z,100776.06
2023-03-18T02:36:27.851Z,100785.84
2023-03-18T02:38:57.404Z,100786.66
2023-03-18T02:41:27.309Z,100787.97
2023-03-18T02:43:56.619Z,100790.13
2023-03-18T02:46:32.111Z,100785.25
2023-03-18T02:49:01.641Z,100788.78
2023-03-18T02:51:30.108Z,100784.03
2023-03-18T02:54:02.642Z,100790.00
2023-03-18T02:56:30.660Z,100776.78
2023-03-18T02:58:59.761Z,100777.59
2023-03-18T03:01:27.778Z,100778.22
2023-03-18T03:03:56.373Z,100770.06
2023-03-18T03:06:24.349Z,100775.22
2023-03-18T03:08:52.141Z,100772.84
2023-03-18T03:11:20.647Z,100764.91
2023-03-18T03:13:48.406Z,100763.84
2023-03-18T03:16:19.318Z,100761.44
2023-03-18T03:18:48.040Z,100757.59
2023-03-18T03:21:16.205Z,100761.19
2023-03-18T03:23:46.631Z,100742.81
2023-03-18T03:26:14.938Z,100746.44
2023-03-18T03:28:42.983Z,100736.03
2023-03-18T03:31:10.980Z,100743.16
2023-03-18T03:33:43.661Z,100756.72
2023-03-18T03:36:13.492Z,100751.59
2023-03-18T03:38:42.363Z,100740.84
2023-03-18T03:41:11.600Z,100734.97
2023-03-18T03:43:40.346Z,100752.84
2023-03-18T03:46:09.676Z,100744.09
2023-03-18T03:48:38.189Z,100744.91
2023-03-18T03:51:08.117Z,100741.28
2023-03-18T03:53:37.026Z,100726.09
2023-03-18T03:56:05.572Z,100716.50
2023-03-18T03:58:33.681Z,100729.19
2023-03-18T04:01:01.421Z,100734.59
2023-03-18T04:03:30.149Z,100729.88
2023-03-18T04:05:57.871Z,100707.75
2023-03-18T04:08:27.540Z,100702.84
2023-03-18T04:10:55.266Z,100709.50
2023-03-18T04:13:23.496Z,100697.72
2023-03-18T04:15:51.923Z,100693.53
2023-03-18T04:18:19.728Z,100695.31
2023-03-18T04:20:47.917Z,100692.06
2023-03-18T04:23:15.691Z,100676.88
2023-03-18T04:25:44.787Z,100681.72
2023-03-18T04:28:12.511Z,100660.88
2023-03-18T04:30:40.215Z,100667.91
2023-03-18T04:33:07.976Z,100642.06
2023-03-18T04:35:35.719Z,100626.88
2023-03-18T04:38:03.483Z,100624.88
2023-03-18T04:40:31.497Z,100618.28
2023-03-18T04:43:00.785Z,100616.50
2023-03-18T04:45:29.469Z,100632.50
2023-03-18T04:47:57.425Z,100619.19
2023-03-18T04:50:25.570Z,100625.03
2023-03-18T04:52:53.301Z,100645.13
2023-03-18T04:55:21.577Z,100654.97
2023-03-18T04:57:50.558Z,100657.63
2023-03-18T05:00:22.406Z,100652.47
2023-03-18T05:02:50.390Z,100657.91
2023-03-18T05:05:18.278Z,100680.00
2023-03-18T05:07:46.069Z,100670.72
2023-03-18T05:10:14.125Z,100678.16
2023-03-18T05:12:42.112Z,100681.16
2023-03-18T05:15:12.129Z,100703.66
2023-03-18T05:17:41.702Z,100691.75
2023-03-18T05:20:11.636Z,100695.19
2023-03-18T05:22:39.409Z,100695.47
2023-03-18T05:25:08.526Z,100689.06
2023-03-18T05:27:36.426Z,100691.31
2023-03-18T05:30:04.980Z,100690.19
2023-03-18T05:32:33.053Z,100686.19
2023-03-18T05:35:02.197Z,100674.78
2023-03-18T05:37:29.924Z,100661.44
2023-03-18T05:39:57.666Z,100649.94
2023-03-18T05:42:25.492Z,100612.50
2023-03-18T05:44:54.348Z,100610.19
2023-03-18T05:47:22.645Z,100582.19
2023-03-18T05:49:50.604Z,100577.75
2023-03-18T05:52:19.683Z,100573.31
2023-03-18T05:54:47.417Z,100573.44
2023-03-18T05:57:15.259Z,100558.94
2023-03-18T05:59:43.912Z,100541.59
2023-03-18T06:02:12.847Z,100558.66
2023-03-18T06:04:41.200Z,100539.09
2023-03-18T06:07:09.058Z,100531.16
2023-03-18T06:09:38.460Z,100574.44
2023-03-18T06:12:07.196Z,100593.53
2023-03-18T06:14:35.455Z,100580.84
2023-03-18T06:17:03.186Z,100614.38
2023-03-18T06:19:32.245Z,100614.66
2023-03-18T06:21:59.973Z,100623.00
2023-03-18T06:24:28.682Z,100613.09
2023-03-18T06:26:57.780Z,100608.63
2023-03-18T06:29:25.490Z,100601.00
2023-03-18T06:31:53.305Z,100607.56
2023-03-18T06:34:21.015Z,100612.00
2023-03-18T06:36:48.757Z,100623.25
2023-03-18T06:39:16.477Z,100625.22
2023-03-18T06:41:44.821Z,100612.44
2023-03-18T06:44:14.790Z,100613.50
2023-03-18T06:46:43.995Z,100630.06
2023-03-18T06:49:12.720Z,100655.41
2023-03-18T06:51:40.496Z,100642.56
2023-03-18T06:54:09.472Z,100659.88
2023-03-18T06:56:38.960Z,100649.41
2023-03-18T06:59:07.996Z,100644.06
2023-03-18T07:01:38.114Z,100624.06
2023-03-18T07:04:06.868Z,100612.09
2023-03-18T07:06:34.884Z,100621.63
2023-03-18T07:09:02.884Z,100631.44
2023-03-18T07:11:30.912Z,100614.66
2023-03-18T07:13:58.642Z,100613.22
2023-03-18T07:16:26.432Z,100643.66
2023-03-18T07:18:58.238Z,100682.63
2023-03-18T07:21:25.992Z,100691.06
2023-03-18T07:23:55.538Z,100710.66
2023-03-18T07:26:24.114Z,100691.78
2023-03-18T07:28:51.867Z,100690.22
2023-03-18T07:31:19.682Z,100714.00
2023-03-18T07:33:47.416Z,100725.22
2023-03-18T07:36:16.528Z,100711.13
2023-03-18T07:38:44.333Z,100719.69
2023-03-18T07:41:12.618Z,100685.31
2023-03-18T07:43:40.371Z,100688.78
2023-03-18T07:46:08.245Z,100690.75
2023-03-18T07:48:36.054Z,100699.25
2023-03-18T07:51:03.798Z,100680.06
2023-03-18T07:53:33.744Z,100687.63
2023-03-18T07:56:02.062Z,100661.38
2023-03-18T07:58:29.802Z,100677.09
2023-03-18T08:00:57.728Z,100657.63
2023-03-18T08:03:25.449Z,100656.69
2023-03-18T08:05:53.248Z,100673.22
2023-03-18T08:08:21.902Z,100634.03
2023-03-18T08:10:51.114Z,100639.69
2023-03-18T08:13:18.869Z,100669.91
2023-03-18T08:15:46.782Z,100660.00
2023-03-18T08:18:14.676Z,100657.31
2023-03-18T08:20:42.462Z,100662.13
2023-03-18T08:23:10.213Z,100678.16
2023-03-18T08:25:38.009Z,100695.38
2023-03-18T08:28:07.653Z,100694.00
2023-03-18T08:30:35.908Z,100693.03
2023-03-18T08:33:03.804Z,100683.00
2023-03-18T08:35:31.699Z,100681.00
2023-03-18T08:37:59.918Z,100676.66
2023-03-18T08:40:28.223Z,100661.72
2023-03-18T08:42:55.958Z,100672.63
2023-03-18T08:45:27.184Z,100669.78
2023-03-18T08:47:55.236Z,100664.38
2023-03-18T08:50:28.351Z,100639.41
2023-03-18T08:52:57.991Z,100664.41
2023-03-18T08:55:31.383Z,100691.13
2023-03-18T08:58:00.137Z,100711.69
2023-03-18T09:00:29.462Z,100753.81
2023-03-18T09:02:57.244Z,100747.94
2023-03-18T09:05:25.880Z,100738.25
2023-03-18T09:07:53.677Z,100747.84
2023-03-18T09:10:21.648Z,100754.09
2023-03-18T09:12:49.968Z,100759.00
2023-03-18T09:15:20.224Z,100747.53
2023-03-18T09:18:04.144Z,100769.56
2023-03-18T09:20:38.960Z,100792.25
2023-03-18T09:23:07.509Z,100806.72
2023-03-18T09:25:35.420Z,100811.00
2023-03-18T09:28:03.502Z,100818.59
2023-03-18T09:30:32.088Z,100847.16
2023-03-18T09:33:01.749Z,100855.06
2023-03-18T09:35:30.501Z,100856.47
2023-03-18T09:37:58.410Z,100861.91
2023-03-18T09:40:28.867Z,100860.09
2023-03-18T09:43:06.279Z,100876.38
2023-03-18T09:45:38.837Z,100869.81
2023-03-18T09:48:35.693Z,100846.25
2023-03-18T09:51:13.706Z,100868.28
2023-03-18T09:53:47.119Z,100861.25
2023-03-18T09:56:19.037Z,100849.88
2023-03-18T09:58:53.838Z,100869.69
2023-03-18T10:01:23.822Z,100886.94
2023-03-18T10:03:58.083Z,100900.28
2023-03-18T10:06:26.432Z,100903.72
2023-03-18T10:09:01.987Z,100902.59
2023-03-18T10:11:33.151Z,100903.69
2023-03-18T10:14:22.444Z,100870.16
2023-03-18T10:16:59.470Z,100878.69
2023-03-18T10:19:29.602Z,100888.31
2023-03-18T10:22:10.586Z,100898.81
2023-03-18T10:24:43.583Z,100907.50
2023-03-18T10:27:19.136Z,100918.09
2023-03-18T10:29:50.275Z,100909.16
2023-03-18T10:32:42.849Z,100914.78
2023-03-18T10:35:32.079Z,100910.78
2023-03-18T10:38:04.586Z,100911.41
2023-03-18T10:40:37.610Z,100928.97
2023-03-18T10:43:11.867Z,100922.53
2023-03-18T10:45:39.919Z,100929.56
2023-03-18T10:48:16.003Z,100933.00
2023-03-18T10:50:51.588Z,100933.38
2023-03-18T10:53:28.219Z,100910.47
2023-03-18T10:56:04.427Z,100911.94
2023-03-18T10:58:32.165Z,100927.66
2023-03-18T11:01:00.502Z,100932.63
2023-03-18T11:03:31.572Z,100933.88
2023-03-18T11:06:04.689Z,100938.69
2023-03-18T11:08:35.638Z,100939.50
2023-03-18T11:11:17.498Z,100942.16
2023-03-18T11:13:52.860Z,100933.94
2023-03-18T11:16:42.523Z,100941.13
2023-03-18T11:19:28.936Z,100943.06
2023-03-18T11:22:10.598Z,100925.56
2023-03-18T11:24:43.675Z,100921.47
2023-03-18T11:27:27.844Z,100907.06
2023-03-18T11:29:58.251Z,100914.13
2023-03-18T11:32:29.066Z,100900.88
2023-03-18T11:34:58.804Z,100893.03
2023-03-18T11:37:35.889Z,100894.16
2023-03-18T11:40:25.829Z,100890.31
2023-03-18T11:42:58.698Z,100884.59
2023-03-18T11:45:45.156Z,100886.72
2023-03-18T11:48:18.626Z,100888.88
2023-03-18T11:50:58.436Z,100859.50
2023-03-18T11:53:37.837Z,100866.69
2023-03-18T11:56:15.167Z,100859.47
2023-03-18T11:59:08.574Z,100865.53
2023-03-18T12:01:50.515Z,100871.41
2023-03-18T12:04:36.150Z,100837.00
2023-03-18T12:07:23.670Z,100826.63
2023-03-18T12:10:03.706Z,100845.81
2023-03-18T12:12:47.549Z,100863.19
2023-03-18T12:15:23.753Z,100864.25
2023-03-18T12:18:02.561Z,100852.34
2023-03-18T12:20:50.517Z,100840.91
2023-03-18T12:23:38.054Z,100819.72
2023-03-18T12:26:09.568Z,100809.22
2023-03-18T12:28:49.328Z,100810.16
2023-03-18T12:31:35.245Z,100809.81
2023-03-18T12:34:04.567Z,100802.78
2023-03-18T12:36:54.119Z,100788.00
2023-03-18T12:39:52.215Z,100782.22
2023-03-18T12:42:31.398Z,100802.00
2023-03-18T12:45:01.962Z,100811.53
2023-03-18T12:47:38.884Z,100813.28
2023-03-18T12:50:16.398Z,100822.72
2023-03-18T12:52:47.548Z,100829.09
2023-03-18T12:55:19.303Z,100813.09
2023-03-18T12:57:50.782Z,100818.50
2023-03-18T13:00:24.844Z,100806.03
2023-03-18T13:03:07.843Z,100801.44
2023-03-18T13:05:45.497Z,100823.75
2023-03-18T13:08:44.562Z,100819.72
2023-03-18T13:11:27.194Z,100831.56
2023-03-18T13:14:04.748Z,100847.41
2023-03-18T13:16:36.302Z,100886.13
2023-03-18T13:19:04.829Z,100892.53
2023-03-18T13:21:36.120Z,100909.69
2023-03-18T13:24:25.458Z,100915.50
2023-03-18T13:27:19.717Z,100911.81
2023-03-18T13:29:55.349Z,100905.72
2023-03-18T13:32:39.176Z,100913.94
2023-03-18T13:35:28.518Z,100914.38
2023-03-18T13:38:21.291Z,100903.44
2023-03-18T13:41:04.547Z,100947.75
2023-03-18T13:43:34.903Z,100980.56
2023-03-18T13:46:04.441Z,100987.91
2023-03-18T13:48:34.661Z,101001.00
2023-03-18T13:51:20.471Z,100992.47
2023-03-18T13:53:50.621Z,100998.03
2023-03-18T13:56:32.964Z,100999.16
2023-03-18T13:59:05.783Z,100995.13
2023-03-18T14:01:36.453Z,100994.38
2023-03-18T14:04:31.427Z,100986.28
2023-03-18T14:07:15.387Z,100963.16
2023-03-18T14:09:52.771Z,100979.22
2023-03-18T14:12:24.030Z,100972.44
2023-03-18T14:14:57.669Z,100974.84
2023-03-18T14:17:41.928Z,100982.06
2023-03-18T14:20:27.220Z,100983.09
2023-03-18T14:22:56.204Z,100990.19
2023-03-18T14:25:41.976Z,100998.59
2023-03-18T14:28:28.586Z,101002.56
2023-03-18T14:31:14.662Z,101004.38
2023-03-18T14:33:58.301Z,100993.25
2023-03-18T14:36:48.193Z,100990.88
2023-03-18T14:39:19.412Z,100991.88
2023-03-18T14:41:52.596Z,101012.00
2023-03-18T14:44:25.225Z,101014.94
2023-03-18T14:46:58.881Z,101030.00
2023-03-18T14:49:36.545Z,101027.78
2023-03-18T14:52:14.000Z,101033.16
2023-03-18T14:54:45.921Z,101019.88
2023-03-18T14:57:14.162Z,101010.41
2023-03-18T14:59:41.912Z,101004.38
2023-03-18T15:02:23.823Z,101004.78
2023-03-18T15:04:55.448Z,101005.75
2023-03-18T15:07:30.187Z,100993.44
2023-03-18T15:09:58.946Z,101012.22
2023-03-18T15:12:28.818Z,101005.97
2023-03-18T15:14:57.149Z,101006.03
2023-03-18T15:17:27.454Z,101001.56
2023-03-18T15:20:00.071Z,101014.38
2023-03-18T15:22:31.399Z,101032.75
2023-03-18T15:25:02.517Z,101040.25
2023-03-18T15:27:31.995Z,101032.03
2023-03-18T15:30:01.511Z,101032.84
2023-03-18T15:32:31.658Z,101049.78
2023-03-18T15:35:14.913Z,101057.31
2023-03-18T15:37:43.869Z,101048.09
2023-03-18T15:40:30.760Z,101053.59
2023-03-18T15:42:59.861Z,101054.75
2023-03-18T15:45:31.439Z,101051.84
2023-03-18T15:48:08.145Z,101060.78
2023-03-18T15:50:37.618Z,101056.13
2023-03-18T15:53:17.775Z,101056.66
2023-03-18T15:55:50.057Z,101068.13
2023-03-18T15:58:23.249Z,101051.59
2023-03-18T16:00:53.022Z,101060.09
2023-03-18T16:03:23.524Z,101068.25
2023-03-18T16:05:54.604Z,101052.63
2023-03-18T16:08:23.342Z,101060.88
2023-03-18T16:10:53.569Z,101066.69
2023-03-18T16:13:25.073Z,101078.44
2023-03-18T16:15:53.212Z,101075.09
2023-03-18T16:18:21.321Z,101079.56
2023-03-18T16:20:49.667Z,101079.72
2023-03-18T16:23:19.096Z,101076.00
2023-03-18T16:25:49.152Z,101076.13
2023-03-18T16:28:22.537Z,101088.13
2023-03-18T16:30:52.149Z,101089.72
2023-03-18T16:33:21.656Z,101080.47
2023-03-18T16:35:54.307Z,101091.75
2023-03-18T16:38:23.762Z,101091.19
2023-03-18T16:40:53.867Z,101094.22
2023-03-18T16:43:24.015Z,101094.56
2023-03-18T16:45:52.446Z,101100.91
2023-03-18T16:48:21.862Z,101092.84
2023-03-18T16:50:51.500Z,101092.97
2023-03-18T16:53:22.208Z,101086.25
2023-03-18T16:55:53.813Z,101078.94
2023-03-18T16:58:26.596Z,101090.72
2023-03-18T17:00:54.413Z,101066.44
2023-03-18T17:03:22.426Z,101083.38
2023-03-18T17:05:52.107Z,101089.41
2023-03-18T17:08:21.562Z,101090.22
2023-03-18T17:10:55.287Z,101089.59
2023-03-18T17:13:25.981Z,101088.09
2023-03-18T17:15:54.085Z,101093.25
2023-03-18T17:18:24.434Z,101097.50
2023-03-18T17:20:52.766Z,101099.34
2023-03-18T17:23:22.390Z,101095.41
2023-03-18T17:25:54.649Z,101098.13
2023-03-18T17:28:29.915Z,101093.47
2023-03-18T17:30:57.891Z,101095.16
2023-03-18T17:33:27.889Z,101084.97
2023-03-18T17:35:56.642Z,101081.47
2023-03-18T17:38:24.604Z,101079.13
2023-03-18T17:40:55.429Z,101081.97
2023-03-18T17:43:29.334Z,101082.78
2023-03-18T17:45:57.534Z,101070.25
2023-03-18T17:48:26.781Z,101053.56
2023-03-18T17:50:56.910Z,101033.59
2023-03-18T17:53:28.198Z,101004.41
2023-03-18T17:55:57.679Z,101044.06
2023-03-18T17:58:28.358Z,101054.59
2023-03-18T18:01:06.641Z,101060.78
2023-03-18T18:03:36.384Z,101057.75
2023-03-18T18:06:04.744Z,101045.72
2023-03-18T18:08:32.719Z,101056.06
2023-03-18T18:11:10.951Z,101038.91
2023-03-18T18:13:38.723Z,101025.94
2023-03-18T18:16:07.047Z,101029.72
2023-03-18T18:18:37.054Z,101041.41
2023-03-18T18:21:06.803Z,101040.22
2023-03-18T18:23:37.017Z,101036.41
2023-03-18T18:26:08.678Z,101032.06
2023-03-18T18:28:38.517Z,101027.91
2023-03-18T18:31:10.245Z,101022.53
2023-03-18T18:33:39.584Z,101015.94
2023-03-18T18:36:08.508Z,100969.78
2023-03-18T18:38:36.494Z,100962.31
2023-03-18T18:41:04.254Z,100963.56
2023-03-18T18:43:33.391Z,100976.47
2023-03-18T18:46:01.340Z,100966.09
2023-03-18T18:48:31.654Z,100957.94
2023-03-18T18:51:00.572Z,100952.59
2023-03-18T18:53:30.956Z,100966.13
2023-03-18T18:56:00.970Z,100939.41
2023-03-18T18:58:32.624Z,100897.34
2023-03-18T19:01:01.786Z,100915.25
2023-03-18T19:03:31.768Z,100935.06
2023-03-18T19:06:01.515Z,100960.88
2023-03-18T19:08:31.688Z,100967.03
2023-03-18T19:11:01.521Z,100939.34
2023-03-18T19:13:30.992Z,100963.84
2023-03-18T19:16:02.805Z,100965.09
2023-03-18T19:18:35.970Z,100973.50
2023-03-18T19:21:03.795Z,100950.41
2023-03-18T19:23:34.221Z,100959.97
2023-03-18T19:26:03.052Z,100968.44
2023-03-18T19:28:58.343Z,100960.13
2023-03-18T19:31:31.303Z,100956.16
2023-03-18T19:34:00.777Z,100948.25
2023-03-18T19:36:30.268Z,100943.38
2023-03-18T19:39:00.337Z,100939.38
2023-03-18T19:41:28.635Z,100941.41
2023-03-18T19:44:00.451Z,100958.03
2023-03-18T19:46:35.994Z,100967.66
2023-03-18T19:49:03.898Z,100966.00
2023-03-18T19:51:31.691Z,100964.84
2023-03-18T19:53:59.672Z,100966.00
2023-03-18T19:56:28.955Z,100961.63
2023-03-18T19:58:59.018Z,100954.91
2023-03-18T20:01:28.921Z,100890.09
2023-03-18T20:03:59.440Z,100779.56
2023-03-18T20:06:27.618Z,100777.44
2023-03-18T20:08:55.644Z,100788.03
2023-03-18T20:11:23.803Z,100828.28
2023-03-18T20:13:51.591Z,100860.44
2023-03-18T20:16:19.825Z,100838.69
2023-03-18T20:18:47.565Z,100796.66
2023-03-18T20:21:24.134Z,100836.09
2023-03-18T20:23:52.581Z,100825.91
2023-03-18T20:26:20.562Z,100837.84
2023-03-18T20:28:51.417Z,100825.25
2023-03-18T20:31:19.197Z,100839.03
2023-03-18T20:33:46.929Z,100817.59
2023-03-18T20:36:19.157Z,100859.03
2023-03-18T20:38:49.963Z,100878.69
2023-03-18T20:41:18.849Z,100855.16
2023-03-18T20:43:49.288Z,100872.50
2023-03-18T20:46:18.080Z,100854.63
2023-03-18T20:48:49.304Z,100858.81
2023-03-18T20:51:24.213Z,100869.63
2023-03-18T20:53:52.007Z,100845.41
2023-03-18T20:56:22.824Z,100850.13
2023-03-18T20:58:50.626Z,100898.34
2023-03-18T21:01:19.297Z,100896.69
2023-03-18T21:03:47.189Z,100831.06
2023-03-18T21:06:16.387Z,100802.78
2023-03-18T21:08:45.549Z,100840.34
2023-03-18T21:11:22.817Z,100854.47
2023-03-18T21:13:51.052Z,100830.94
2023-03-18T21:16:20.008Z,100829.28
2023-03-18T21:18:49.519Z,100811.88
2023-03-18T21:21:23.865Z,100778.59
2023-03-18T21:23:54.452Z,100763.09
2023-03-18T21:26:22.551Z,100764.47
2023-03-18T21:28:50.351Z,100789.53
2023-03-18T21:31:27.708Z,100812.06
2023-03-18T21:33:57.425Z,100837.47
2023-03-18T21:36:26.080Z,100814.94
2023-03-18T21:38:55.457Z,100773.34
2023-03-18T21:41:25.429Z,100787.03
2023-03-18T21:43:53.533Z,100758.69
2023-03-18T21:46:23.023Z,100750.16
2023-03-18T21:48:51.316Z,100752.63
2023-03-18T21:51:37.891Z,100751.97
2023-03-18T21:54:14.488Z,100747.94
2023-03-18T21:56:42.200Z,100735.34
2023-03-18T21:59:09.930Z,100733.34
2023-03-18T22:01:37.716Z,100743.94
2023-03-18T22:04:05.531Z,100751.47
2023-03-18T22:06:33.970Z,100751.25
2023-03-18T22:09:02.284Z,100761.31
2023-03-18T22:11:31.588Z,100764.09
2023-03-18T22:13:59.343Z,100757.84
2023-03-18T22:16:27.130Z,100752.13
2023-03-18T22:18:54.971Z,100768.56
2023-03-18T22:21:26.038Z,100769.13
2023-03-18T22:23:54.387Z,100773.97
2023-03-18T22:26:22.761Z,100772.59
2023-03-18T22:28:51.868Z,100766.34
2023-03-18T22:31:21.949Z,100771.09
2023-03-18T22:33:49.736Z,100767.47
2023-03-18T22:36:19.599Z,100757.44
2023-03-18T22:38:47.383Z,100754.91
2023-03-18T22:41:20.752Z,100739.75
2023-03-18T22:43:48.932Z,100734.19
2023-03-18T22:46:18.266Z,100744.63
2023-03-18T22:48:46.331Z,100747.13
2023-03-18T22:51:22.379Z,100739.88
2023-03-18T22:53:52.393Z,100737.81
2023-03-18T22:56:20.249Z,100732.91
2023-03-18T22:58:48.171Z,100736.13
2023-03-18T23:01:18.797Z,100752.56
2023-03-18T23:03:47.756Z,100757.84
2023-03-18T23:06:17.285Z,100737.53
2023-03-18T23:08:46.414Z,100728.75
2023-03-18T23:11:15.049Z,100732.94
2023-03-18T23:13:44.082Z,100738.50
2023-03-18T23:16:16.006Z,100733.75
2023-03-18T23:18:45.633Z,100735.44
2023-03-18T23:21:17.762Z,100749.50
2023-03-18T23:23:45.686Z,100745.34
2023-03-18T23:26:13.752Z,100750.63
2023-03-18T23:28:44.902Z,100753.94
2023-03-18T23:31:13.713Z,100756.59
2023-03-18T23:33:41.518Z,100758.28
2023-03-18T23:36:11.801Z,100760.50
2023-03-18T23:38:39.711Z,100777.97
2023-03-18T23:41:08.246Z,100773.22
2023-03-18T23:43:36.743Z,100774.88
2023-03-18T23:46:04.723Z,100767.97
2023-03-18T23:48:32.639Z,100754.03
2023-03-18T23:51:00.713Z,100746.53
2023-03-18T23:53:30.040Z,100755.78
2023-03-18T23:55:57.766Z,100753.06
2023-03-18T23:58:25.557Z,100774.78
